Time;durP1;ratioP1;P1;durP2;ratioP2;P2;SDS_P1;SDS_P2;PMS_P1;PMS_P2;Temp;Humidity;BMP_temperature;BMP_pressure;BME280_temperature;BME280_humidity;BME280_pressure;Samples;Min_cycle;Max_cycle;Signal;HPM_P1;HPM_P2
2022/03/22 00:00:07;;;;;;;23.80;11.95;;;;;;;1.89;38.85;95302.88;5043964;28;20422;-87
2022/03/22 00:02:36;;;;;;;28.80;12.60;;;;;;;1.90;39.12;95297.41;5043658;28;20025;-87
2022/03/22 00:05:04;;;;;;;32.45;14.13;;;;;;;1.84;38.49;95292.25;5043922;28;20033;-88
2022/03/22 00:07:31;;;;;;;33.40;16.20;;;;;;;1.78;38.50;95294.72;5043987;28;20041;-87
2022/03/22 00:09:56;;;;;;;34.65;15.38;;;;;;;1.78;38.17;95310.50;5043634;28;20032;-89
2022/03/22 00:12:22;;;;;;;40.20;16.73;;;;;;;1.76;38.87;95296.78;5043886;28;20025;-86
2022/03/22 00:14:58;;;;;;;28.92;15.25;;;;;;;1.83;38.23;95299.31;5043662;28;20228;-89
2022/03/22 00:17:24;;;;;;;26.63;9.57;;;;;;;1.78;36.66;95301.81;5043990;28;20033;-89
2022/03/22 00:19:52;;;;;;;27.55;10.75;;;;;;;1.83;36.81;95288.78;5043699;28;20399;-88
2022/03/22 00:22:18;;;;;;;28.90;11.35;;;;;;;1.86;38.00;95282.31;5043850;28;20028;-88
2022/03/22 00:24:43;;;;;;;25.65;11.45;;;;;;;1.72;37.17;95281.69;5043603;28;20021;-88
2022/03/22 00:27:09;;;;;;;22.77;10.07;;;;;;;1.79;37.50;95285.84;5026194;28;20064;-88
2022/03/22 00:29:34;;;;;;;28.13;12.55;;;;;;;1.86;37.44;95287.56;5043548;28;20021;-86
2022/03/22 00:32:00;;;;;;;25.70;11.60;;;;;;;1.90;37.99;95291.34;5043795;28;20024;-91
2022/03/22 00:34:46;;;;;;;27.00;12.60;;;;;;;1.93;37.73;95296.16;5044684;28;20041;-93
2022/03/22 00:37:46;;;;;;;22.95;10.98;;;;;;;1.92;36.92;95284.06;5045071;28;20041;-92
2022/03/22 00:40:15;;;;;;;24.08;10.80;;;;;;;1.93;37.37;95283.81;5041209;28;20049;-91
2022/03/22 00:42:41;;;;;;;19.27;10.23;;;;;;;2.01;38.11;95287.94;5045567;28;20105;-91
2022/03/22 00:45:10;;;;;;;18.73;9.55;;;;;;;2.09;37.53;95277.13;5026884;28;20057;-91
2022/03/22 00:47:35;;;;;;;24.30;10.68;;;;;;;2.15;36.79;95280.69;5044623;28;20021;-91
2022/03/22 00:50:01;;;;;;;21.65;11.10;;;;;;;2.15;37.16;95276.22;5044232;28;20144;-90
2022/03/22 00:52:27;;;;;;;19.00;10.02;;;;;;;2.09;36.97;95279.75;5044110;28;20037;-89
2022/03/22 00:54:52;;;;;;;20.25;9.55;;;;;;;2.03;37.07;95270.13;5043516;28;20266;-91
2022/03/22 00:57:18;;;;;;;20.27;9.82;;;;;;;2.00;37.46;95273.22;5044330;28;20021;-91
2022/03/22 01:00:04;;;;;;;19.63;10.15;;;;;;;1.97;36.54;95271.84;5044268;28;20021;-90
2022/03/22 01:02:32;;;;;;;20.25;9.32;;;;;;;2.03;36.39;95283.28;5043791;28;20028;-89
2022/03/22 01:04:57;;;;;;;19.02;9.20;;;;;;;2.12;36.04;95281.16;5043558;28;20029;-90
2022/03/22 01:07:23;;;;;;;19.70;9.27;;;;;;;2.13;36.00;95277.47;5043228;28;20104;-86
2022/03/22 01:09:49;;;;;;;19.33;8.80;;;;;;;2.09;35.94;95281.56;5025222;28;20031;-86
2022/03/22 01:12:15;;;;;;;19.60;8.15;;;;;;;2.17;35.53;95268.91;5043139;28;20205;-86
2022/03/22 01:14:42;;;;;;;19.63;8.38;;;;;;;2.20;36.22;95265.03;5042654;28;20375;-86
2022/03/22 01:17:08;;;;;;;19.83;9.93;;;;;;;2.20;35.98;95265.84;5042599;28;20029;-87
2022/03/22 01:19:34;;;;;;;21.35;8.43;;;;;;;2.24;35.99;95270.63;5042700;28;20032;-87
2022/03/22 01:22:00;;;;;;;17.40;7.53;;;;;;;2.30;36.14;95270.53;5042866;28;20021;-86
2022/03/22 01:24:26;;;;;;;14.05;7.88;;;;;;;2.36;34.92;95274.06;5042841;28;20029;-87
2022/03/22 01:26:52;;;;;;;17.90;9.20;;;;;;;2.35;34.87;95256.69;5042726;28;20028;-87
2022/03/22 01:29:17;;;;;;;17.70;8.55;;;;;;;2.39;35.00;95257.84;5043046;28;20025;-87
2022/03/22 01:31:44;;;;;;;21.60;7.70;;;;;;;2.42;34.69;95254.75;5042542;28;20085;-87
2022/03/22 01:34:10;;;;;;;14.75;6.93;;;;;;;2.41;34.43;95255.78;5042508;28;20113;-87
2022/03/22 01:36:35;;;;;;;15.02;6.95;;;;;;;2.47;34.49;95252.25;5042643;28;20026;-87
2022/03/22 01:40:04;;;;;;;16.70;7.85;;;;;;;2.48;34.01;95251.22;5042358;28;20032;-86
2022/03/22 01:42:30;;;;;;;13.48;6.97;;;;;;;2.47;33.85;95254.88;5031856;28;20415;-87
2022/03/22 01:44:55;;;;;;;25.83;8.65;;;;;;;2.48;34.60;95251.22;5042484;28;20025;-87
2022/03/22 01:47:25;;;;;;;20.73;8.38;;;;;;;2.56;34.54;95253.50;5042560;28;20025;-87
2022/03/22 01:49:51;;;;;;;20.50;9.50;;;;;;;2.65;35.13;95248.72;5024632;28;20025;-87
2022/03/22 01:52:20;;;;;;;33.35;11.60;;;;;;;2.76;36.36;95253.16;5042505;28;20095;-87
2022/03/22 01:54:50;;;;;;;19.15;8.82;;;;;;;2.74;35.13;95239.44;5042892;28;20029;-86
2022/03/22 01:57:19;;;;;;;15.30;7.38;;;;;;;2.78;34.08;95245.84;5046422;28;20026;-87
2022/03/22 01:59:46;;;;;;;15.95;7.65;;;;;;;2.76;33.69;95244.47;5046622;28;20036;-87
2022/03/22 02:07:41;;;;;;;17.23;7.60;;;;;;;2.60;34.24;95243.31;5046143;28;20287;-83
2022/03/22 02:10:08;;;;;;;21.38;8.85;;;;;;;2.56;34.92;95240.34;5045944;28;20029;-83
2022/03/22 02:12:33;;;;;;;17.00;7.90;;;;;;;2.56;34.89;95239.53;5045868;28;20127;-83
2022/03/22 02:14:59;;;;;;;19.73;7.85;;;;;;;2.59;35.33;95236.47;5045843;28;20037;-84
2022/03/22 02:17:24;;;;;;;17.52;8.68;;;;;;;2.66;34.36;95241.63;5045840;28;20039;-83
2022/03/22 02:19:50;;;;;;;15.68;7.60;;;;;;;2.68;33.86;95240.34;5046002;28;20021;-83
2022/03/22 02:22:18;;;;;;;18.30;7.90;;;;;;;2.66;34.06;95231.09;5045933;28;20044;-84
2022/03/22 02:27:34;;;;;;;14.85;7.70;;;;;;;2.63;33.54;95231.56;5035036;28;20033;-84
2022/03/22 02:30:00;;;;;;;14.82;6.78;;;;;;;2.68;32.89;95229.03;5045243;28;20025;-84
2022/03/22 02:32:28;;;;;;;17.40;7.65;;;;;;;2.64;33.43;95227.88;5045521;28;20029;-83
2022/03/22 02:34:53;;;;;;;21.08;8.38;;;;;;;2.58;33.65;95224.31;5045326;28;20213;-85
2022/03/22 02:37:19;;;;;;;19.58;7.90;;;;;;;2.51;33.73;95224.44;5045898;28;20029;-85
2022/03/22 02:39:44;;;;;;;30.30;10.23;;;;;;;2.47;34.43;95222.50;5045413;28;20223;-85
2022/03/22 02:42:10;;;;;;;23.17;8.07;;;;;;;2.46;34.21;95221.69;5045273;28;20323;-85
2022/03/22 02:44:36;;;;;;;16.85;6.82;;;;;;;2.47;34.05;95225.13;5045336;28;20316;-85
2022/03/22 02:47:02;;;;;;;17.83;7.05;;;;;;;2.45;33.66;95229.84;5045502;28;20037;-84
2022/03/22 02:49:30;;;;;;;17.88;7.60;;;;;;;2.47;33.65;95218.03;5045312;28;20029;-84
2022/03/22 02:51:56;;;;;;;17.05;7.68;;;;;;;2.47;33.70;95225.94;5045144;28;20261;-85
2022/03/22 02:54:21;;;;;;;14.02;6.45;;;;;;;2.46;33.71;95224.31;5045425;28;20056;-89
2022/03/22 02:56:47;;;;;;;15.70;6.63;;;;;;;2.52;33.77;95230.50;5045432;28;20025;-87
2022/03/22 02:59:13;;;;;;;14.35;7.85;;;;;;;2.55;34.09;95233.50;5027843;28;20107;-88
2022/03/22 03:01:38;;;;;;;14.55;7.72;;;;;;;2.60;34.31;95235.44;5045148;28;20026;-88
2022/03/22 03:04:04;;;;;;;14.50;6.72;;;;;;;2.65;33.69;95232.13;5045108;28;20017;-88
2022/03/22 03:06:29;;;;;;;17.42;6.97;;;;;;;2.55;33.65;95237.97;5044654;28;20022;-88
2022/03/22 03:08:56;;;;;;;14.45;6.30;;;;;;;2.47;32.91;95241.72;5045380;28;20227;-89
2022/03/22 03:11:22;;;;;;;13.02;6.35;;;;;;;2.49;33.20;95237.03;5045396;28;20089;-89
2022/03/22 03:16:31;;;;;;;19.25;6.45;;;;;;;2.50;34.19;95236.00;5045467;28;20085;-89
2022/03/22 03:18:57;;;;;;;19.55;7.30;;;;;;;2.48;34.70;95230.16;5045552;28;20026;-87
2022/03/22 03:21:23;;;;;;;13.98;7.43;;;;;;;2.38;35.40;95238.63;5043747;28;20152;-86
2022/03/22 03:23:48;;;;;;;15.60;7.45;;;;;;;2.38;35.58;95236.00;5045074;28;20017;-87
2022/03/22 03:26:13;;;;;;;19.00;7.72;;;;;;;2.38;34.88;95238.63;5044771;28;20014;-87
2022/03/22 03:28:39;;;;;;;13.63;6.93;;;;;;;2.35;34.67;95238.28;5044790;28;20021;-87
2022/03/22 03:31:04;;;;;;;12.73;6.10;;;;;;;2.30;34.57;95227.63;5044640;28;20036;-85
2022/03/22 03:33:30;;;;;;;16.38;5.43;;;;;;;2.19;35.03;95234.47;5044361;28;20041;-85
2022/03/22 03:35:56;;;;;;;13.75;6.28;;;;;;;2.18;35.01;95225.00;5044042;28;20025;-84
2022/03/22 03:38:22;;;;;;;15.30;7.18;;;;;;;2.14;35.11;95231.75;5044490;28;20021;-84
2022/03/22 03:43:31;;;;;;;16.45;7.07;;;;;;;2.04;35.30;95240.19;5044446;28;20036;-84
2022/03/22 03:48:41;;;;;;;21.13;7.28;;;;;;;2.04;35.43;95228.88;5044101;28;20028;-84
2022/03/22 03:51:06;;;;;;;16.58;7.65;;;;;;;1.97;35.66;95231.56;5044082;28;20018;-86
2022/03/22 03:53:32;;;;;;;22.48;7.85;;;;;;;2.03;35.93;95232.50;5044097;28;20216;-85
2022/03/22 03:55:57;;;;;;;14.18;6.80;;;;;;;1.96;36.37;95228.16;5043820;28;20021;-85
2022/03/22 03:58:22;;;;;;;13.50;6.90;;;;;;;1.90;36.28;95228.25;5044246;28;20029;-85
2022/03/22 04:00:48;;;;;;;15.35;7.30;;;;;;;1.90;36.34;95236.13;5044064;28;20320;-84
2022/03/22 04:03:14;;;;;;;16.70;7.40;;;;;;;1.89;36.24;95232.69;5043777;28;20075;-87
2022/03/22 04:05:39;;;;;;;18.40;7.72;;;;;;;1.91;36.02;95238.53;5043907;28;20029;-87
2022/03/22 04:08:05;;;;;;;16.77;7.28;;;;;;;1.92;35.82;95229.63;5043863;28;20232;-85
2022/03/22 04:10:31;;;;;;;18.92;7.68;;;;;;;1.96;35.87;95232.63;5043670;28;20133;-86
2022/03/22 04:12:57;;;;;;;15.73;8.43;;;;;;;2.01;36.29;95235.34;5043796;28;20072;-87
2022/03/22 04:15:23;;;;;;;14.23;7.18;;;;;;;2.05;35.94;95233.88;5043740;28;20316;-87
2022/03/22 04:17:49;;;;;;;17.25;7.40;;;;;;;1.97;36.11;95224.50;5043497;28;20266;-87
2022/03/22 04:20:15;;;;;;;21.30;7.70;;;;;;;2.00;36.18;95236.41;5042960;28;20026;-86
2022/03/22 04:22:40;;;;;;;13.98;7.45;;;;;;;1.97;36.23;95239.47;5026120;28;20071;-87
2022/03/22 04:25:06;;;;;;;14.23;6.45;;;;;;;1.91;36.33;95235.09;5043459;28;20024;-86
2022/03/22 04:33:14;;;;;;;25.60;9.05;;;;;;;1.91;37.27;95240.34;5043286;28;20067;-85
2022/03/22 04:35:42;;;;;;;16.30;7.68;;;;;;;1.94;36.85;95234.66;5043069;28;20338;-84
2022/03/22 04:38:18;;;;;;;21.77;8.90;;;;;;;1.98;36.75;95238.44;5025533;28;20033;-84
2022/03/22 04:40:47;;;;;;;19.33;8.15;;;;;;;1.97;36.21;95231.56;5043290;28;20166;-84
2022/03/22 04:43:15;;;;;;;15.13;7.50;;;;;;;2.00;36.06;95224.03;5043140;28;20014;-84
2022/03/22 04:45:41;;;;;;;16.80;8.18;;;;;;;2.04;35.82;95231.50;5043168;28;20033;-84
2022/03/22 04:48:10;;;;;;;17.98;7.28;;;;;;;2.10;35.53;95223.50;5043605;28;20366;-89
2022/03/22 04:50:40;;;;;;;19.70;7.57;;;;;;;2.17;35.58;95223.38;5043466;28;20021;-88
2022/03/22 04:58:37;;;;;;;12.25;6.93;;;;;;;2.36;34.62;95224.09;5043749;28;20110;-90
2022/03/22 05:01:04;;;;;;;12.75;7.00;;;;;;;2.41;34.08;95224.22;5043836;28;20312;-90
2022/03/22 05:03:29;;;;;;;15.30;7.22;;;;;;;2.55;33.52;95225.59;5043536;28;20043;-90
2022/03/22 05:08:49;;;;;;;14.88;6.97;;;;;;;2.85;32.65;95229.94;5043667;28;20090;-90
2022/03/22 05:11:22;;;;;;;15.45;8.57;;;;;;;3.01;33.84;95229.22;5043306;28;20113;-90
2022/03/22 05:13:48;;;;;;;21.73;8.48;;;;;;;3.01;34.53;95233.69;5042936;28;20048;-88
2022/03/22 05:16:16;;;;;;;23.38;8.20;;;;;;;2.99;33.83;95219.94;5042646;28;20215;-87
2022/03/22 05:18:44;;;;;;;17.48;7.35;;;;;;;2.95;33.83;95218.81;5042662;28;20089;-86
2022/03/22 05:21:19;;;;;;;19.23;7.28;;;;;;;3.00;33.77;95230.25;5042404;28;20025;-87
2022/03/22 05:23:45;;;;;;;20.58;7.45;;;;;;;3.11;32.24;95236.53;5042581;28;20116;-87
2022/03/22 05:26:14;;;;;;;15.35;7.53;;;;;;;3.25;32.79;95239.72;5042427;28;20021;-87
2022/03/22 05:28:40;;;;;;;16.45;8.23;;;;;;;3.40;32.87;95224.22;5042111;28;20041;-85
2022/03/22 05:31:08;;;;;;;33.53;9.80;;;;;;;3.42;35.28;95232.69;5045407;28;20021;-86
2022/03/22 05:33:36;;;;;;;30.60;10.32;;;;;;;3.37;35.22;95235.22;5046628;28;20065;-86
2022/03/22 05:36:02;;;;;;;24.98;10.15;;;;;;;3.28;35.21;95230.53;5046414;28;20075;-87
2022/03/22 05:38:28;;;;;;;27.70;11.40;;;;;;;3.30;35.56;95231.91;5046537;28;20021;-87
2022/03/22 05:40:54;;;;;;;28.45;10.93;;;;;;;3.40;35.52;95231.31;5046836;28;20048;-88
2022/03/22 05:43:21;;;;;;;25.08;10.02;;;;;;;3.48;34.12;95227.50;5046372;28;20072;-83
2022/03/22 05:45:48;;;;;;;25.83;9.38;;;;;;;3.46;33.86;95235.66;5046254;28;20025;-85
2022/03/22 05:48:15;;;;;;;22.55;9.43;;;;;;;3.51;33.17;95230.47;5046190;28;20021;-87
2022/03/22 05:50:40;;;;;;;17.80;7.60;;;;;;;3.61;31.82;95232.50;5046290;28;20028;-88
2022/03/22 05:53:05;;;;;;;16.92;7.13;;;;;;;3.64;31.37;95223.31;5046159;28;20029;-85
2022/03/22 05:55:31;;;;;;;14.32;6.13;;;;;;;3.75;30.09;95214.56;5046181;28;20036;-86
2022/03/22 05:57:56;;;;;;;14.82;7.30;;;;;;;3.89;30.31;95223.78;5046254;28;20021;-84
2022/03/22 06:00:22;;;;;;;15.18;5.82;;;;;;;3.99;29.15;95229.22;5046177;28;20064;-84
2022/03/22 06:02:48;;;;;;;13.48;6.80;;;;;;;4.10;30.05;95224.13;5046175;28;20059;-84
2022/03/22 06:05:14;;;;;;;14.80;6.32;;;;;;;4.19;30.51;95218.22;5045924;28;20028;-85
2022/03/22 06:07:41;;;;;;;15.48;7.07;;;;;;;4.27;29.44;95218.84;5046074;28;20027;-87
2022/03/22 06:10:08;;;;;;;13.75;6.35;;;;;;;4.35;28.66;95227.16;5045820;28;20032;-84
2022/03/22 06:12:39;;;;;;;14.45;6.90;;;;;;;4.50;28.32;95228.44;5046081;28;20097;-87
2022/03/22 06:15:15;;;;;;;18.10;6.80;;;;;;;4.62;29.61;95221.25;5045954;28;20025;-87
2022/03/22 06:17:46;;;;;;;12.68;6.65;;;;;;;4.70;28.10;95233.22;5045939;28;20040;-86
2022/03/22 06:20:13;;;;;;;13.40;7.55;;;;;;;4.81;27.79;95229.72;5045515;28;20025;-85
2022/03/22 06:22:39;;;;;;;15.38;6.88;;;;;;;4.93;27.82;95219.84;5045448;28;20052;-86
2022/03/22 06:25:05;;;;;;;16.55;6.78;;;;;;;4.89;28.51;95217.94;5045598;28;20045;-86
2022/03/22 06:27:33;;;;;;;15.55;6.50;;;;;;;4.96;27.36;95221.97;5046649;28;20025;-87
2022/03/22 06:29:58;;;;;;;16.83;7.05;;;;;;;5.06;27.44;95217.88;5045860;28;20338;-89
2022/03/22 06:32:24;;;;;;;14.57;6.78;;;;;;;4.99;27.14;95210.94;5046128;28;20025;-87
2022/03/22 06:34:51;;;;;;;13.77;6.95;;;;;;;5.11;27.01;95223.22;5045330;28;20095;-87
2022/03/22 06:37:16;;;;;;;12.85;7.03;;;;;;;5.20;27.23;95219.13;5045136;28;20021;-89
2022/03/22 06:39:57;;;;;;;;;;;;;;;;;;;;;
2022/03/22 06:42:25;;;;;;;17.38;8.75;;;;;;;5.38;26.72;95218.03;5041863;28;20260;-90
2022/03/22 06:44:51;;;;;;;15.30;7.18;;;;;;;5.45;26.60;95225.75;5046138;28;20354;-85
2022/03/22 06:47:24;;;;;;;13.13;6.85;;;;;;;5.37;26.93;95208.47;5045094;28;20404;-83
2022/03/22 06:49:50;;;;;;;20.13;8.02;;;;;;;5.44;27.42;95206.47;5045288;28;20021;-84
2022/03/22 06:52:15;;;;;;;23.33;8.48;;;;;;;5.53;27.28;95218.19;5045404;28;20064;-84
2022/03/22 06:54:40;;;;;;;14.15;7.20;;;;;;;5.68;27.09;95227.31;5045232;28;20220;-83
2022/03/22 06:57:06;;;;;;;15.30;7.43;;;;;;;5.86;27.20;95218.25;5045031;28;20017;-84
2022/03/22 06:59:33;;;;;;;13.23;7.25;;;;;;;6.04;27.15;95215.28;5045199;28;20017;-84
2022/03/22 07:02:01;;;;;;;16.38;8.73;;;;;;;6.12;26.28;95222.78;5045046;28;20215;-85
2022/03/22 07:04:29;;;;;;;17.25;8.55;;;;;;;6.09;26.79;95218.00;5044932;28;20017;-84
2022/03/22 07:06:54;;;;;;;23.70;8.32;;;;;;;6.20;27.23;95211.72;5027508;28;20017;-83
2022/03/22 07:09:22;;;;;;;15.68;7.70;;;;;;;6.22;26.73;95224.72;5044812;28;20374;-83
2022/03/22 07:11:49;;;;;;;17.52;8.07;;;;;;;6.22;27.12;95222.06;5045067;28;20021;-83
2022/03/22 07:14:21;;;;;;;18.05;8.88;;;;;;;6.26;26.47;95220.50;5044933;28;20032;-83
2022/03/22 07:19:58;;;;;;;15.95;7.65;;;;;;;6.22;26.98;95222.84;4983924;28;20030;-82
2022/03/22 07:22:25;;;;;;;16.45;7.95;;;;;;;6.26;26.69;95211.78;4983862;28;20030;-84
2022/03/22 07:24:51;;;;;;;19.92;7.35;;;;;;;6.36;27.07;95212.66;5012784;28;20029;-80
2022/03/22 07:27:16;;;;;;;17.67;7.78;;;;;;;6.53;26.65;95207.22;5044694;28;20017;-79
2022/03/22 07:29:42;;;;;;;15.20;7.47;;;;;;;6.61;26.20;95209.41;5044390;28;20323;-85
2022/03/22 07:32:07;;;;;;;18.35;8.30;;;;;;;6.75;26.44;95209.75;5043786;28;20100;-85
2022/03/22 07:34:33;;;;;;;14.27;7.75;;;;;;;6.97;26.27;95206.97;5044268;28;20075;-73
2022/03/22 07:36:59;;;;;;;20.95;8.80;;;;;;;6.94;27.03;95202.19;5044194;28;20052;-83
2022/03/22 07:39:25;;;;;;;15.48;8.38;;;;;;;7.06;26.43;95199.31;5044405;28;20022;-83
2022/03/22 07:41:51;;;;;;;16.02;8.98;;;;;;;7.21;26.58;95195.97;5043801;28;20021;-84
2022/03/22 07:44:17;;;;;;;18.70;8.35;;;;;;;7.19;26.95;95200.72;5043352;28;20092;-85
2022/03/22 07:46:47;;;;;;;14.88;7.43;;;;;;;7.16;27.37;95199.34;5044124;28;20091;-85
2022/03/22 07:54:44;;;;;;;18.05;8.27;;;;;;;7.26;28.19;95198.63;5043896;28;20350;-86
2022/03/22 07:57:09;;;;;;;24.85;9.10;;;;;;;7.38;28.42;95190.44;5043782;28;20033;-86
2022/03/22 07:59:35;;;;;;;17.38;8.55;;;;;;;7.37;28.50;95199.47;5044116;28;20097;-86
2022/03/22 08:02:01;;;;;;;14.40;7.32;;;;;;;7.40;28.67;95189.13;5043911;28;20090;-86
2022/03/22 08:04:27;;;;;;;19.00;8.55;;;;;;;7.53;29.08;95197.66;5044041;28;20327;-84
2022/03/22 08:06:52;;;;;;;20.17;8.52;;;;;;;7.72;29.57;95201.44;5043972;28;20033;-90
2022/03/22 08:09:18;;;;;;;22.05;7.70;;;;;;;7.97;29.53;95189.28;5026027;28;20029;-85
2022/03/22 08:11:44;;;;;;;15.93;7.15;;;;;;;8.23;31.27;95187.44;5043748;28;20220;-86
2022/03/22 08:14:20;;;;;;;16.58;7.10;;;;;;;8.31;31.29;95176.28;5043027;28;20338;-86
2022/03/22 08:16:46;;;;;;;18.30;8.02;;;;;;;8.46;30.85;95190.66;5025338;28;20060;-85
2022/03/22 08:19:18;;;;;;;19.10;8.15;;;;;;;8.59;30.98;95192.78;5043757;28;20319;-89
2022/03/22 08:21:51;;;;;;;16.35;7.35;;;;;;;8.79;30.78;95191.94;5043671;28;20062;-90
2022/03/22 08:24:16;;;;;;;15.52;7.95;;;;;;;8.89;30.32;95194.56;5043872;28;20044;-83
2022/03/22 08:26:44;;;;;;;18.67;8.73;;;;;;;9.00;29.77;95190.03;5043249;28;20085;-87
2022/03/22 08:29:09;;;;;;;17.80;7.53;;;;;;;9.16;29.65;95196.91;5025584;28;20013;-86
2022/03/22 08:42:56;;;;;;;;;;;;;;;;;;;;;
2022/03/22 08:45:30;;;;;;;17.60;8.10;;;;;;;9.15;30.55;95189.19;4872864;29;20064;-94
2022/03/22 08:48:24;;;;;;;18.90;7.93;;;;;;;8.98;30.89;95192.97;4871764;29;20033;-90
2022/03/22 08:51:26;;;;;;;17.63;8.23;;;;;;;8.76;30.24;95190.63;4870600;29;20110;-93
2022/03/22 08:53:57;;;;;;;23.27;8.70;;;;;;;8.62;31.10;95187.69;4912799;29;20043;-90
2022/03/22 08:56:32;;;;;;;17.90;8.18;;;;;;;8.64;31.62;95187.44;4939080;29;20141;-94
2022/03/22 09:03:23;;;;;;;;;;;;;;;;;;;;;
2022/03/22 09:09:29;;;;;;;18.23;8.57;;;;;;;8.86;31.96;95173.84;4815518;29;20118;-90
2022/03/22 09:12:14;;;;;;;;;;;;;;;;;;;;;
2022/03/22 09:14:53;;;;;;;21.02;9.52;;;;;;;8.84;31.59;95163.47;4959859;28;20337;-91
2022/03/22 09:17:29;;;;;;;20.77;8.90;;;;;;;8.90;31.32;95172.25;5005318;28;20041;-91
2022/03/22 09:19:54;;;;;;;17.00;9.05;;;;;;;8.86;31.38;95165.88;5006024;28;20026;-89
2022/03/22 09:22:20;;;;;;;21.88;9.52;;;;;;;8.88;31.91;95161.09;5023522;28;20345;-90
2022/03/22 09:24:45;;;;;;;18.92;9.02;;;;;;;8.98;31.86;95168.25;5023158;28;20029;-90
2022/03/22 09:27:11;;;;;;;19.40;8.93;;;;;;;8.98;31.76;95165.59;5022911;28;20194;-84
2022/03/22 09:29:36;;;;;;;23.67;8.43;;;;;;;8.95;31.85;95163.44;5022804;28;20085;-84
2022/03/22 09:32:04;;;;;;;15.88;8.13;;;;;;;8.91;32.51;95173.81;5023599;28;20041;-93
2022/03/22 09:34:32;;;;;;;19.33;8.07;;;;;;;8.93;32.79;95173.56;5032242;28;20234;-90
2022/03/22 09:36:58;;;;;;;25.63;8.68;;;;;;;9.00;33.07;95158.13;5044332;28;20071;-87
2022/03/22 09:39:24;;;;;;;20.90;9.20;;;;;;;9.15;32.96;95157.28;5042554;28;20021;-93
2022/03/22 09:41:51;;;;;;;26.27;9.15;;;;;;;9.18;33.00;95151.41;5042536;28;20029;-90
2022/03/22 09:44:18;;;;;;;19.50;8.32;;;;;;;9.15;33.61;95142.09;5025291;28;20100;-86
2022/03/22 09:46:48;;;;;;;16.80;7.60;;;;;;;9.19;34.06;95143.16;5042516;28;20017;-88
2022/03/22 09:49:15;;;;;;;13.90;7.95;;;;;;;9.24;34.24;95156.44;5042365;28;20068;-86
2022/03/22 09:51:50;;;;;;;19.00;7.20;;;;;;;9.18;33.94;95148.75;5042974;28;20147;-86
2022/03/22 09:54:18;;;;;;;16.67;7.07;;;;;;;9.24;33.77;95139.69;5042479;28;20021;-85
2022/03/22 09:56:45;;;;;;;11.90;6.32;;;;;;;9.22;34.12;95142.63;5024745;28;20029;-86
2022/03/22 09:59:11;;;;;;;18.85;7.15;;;;;;;9.21;34.61;95134.91;5042426;28;20037;-88
2022/03/22 10:01:37;;;;;;;17.35;8.02;;;;;;;9.20;34.89;95144.75;5042378;28;20219;-88
2022/03/22 10:04:06;;;;;;;15.40;7.10;;;;;;;9.27;35.26;95139.13;5024984;28;20025;-90
2022/03/22 10:06:32;;;;;;;14.85;7.15;;;;;;;9.31;35.30;95132.19;5025786;28;20040;-90
2022/03/22 10:08:58;;;;;;;17.80;7.43;;;;;;;9.38;35.34;95131.91;5043380;28;20029;-92
2022/03/22 10:11:51;;;;;;;;;;;;;;;;;;;;;
2022/03/22 10:14:18;;;;;;;13.63;6.95;;;;;;;9.56;34.89;95119.81;5043308;28;20056;-88
2022/03/22 10:17:19;;;;;;;19.48;6.18;;;;;;;9.72;34.74;95115.22;5045083;28;20029;-89
2022/03/22 10:19:51;;;;;;;12.75;5.80;;;;;;;9.80;34.49;95119.94;5046356;28;20104;-90
2022/03/22 10:22:23;;;;;;;13.93;6.50;;;;;;;9.86;34.65;95112.72;5046754;28;20025;-91
2022/03/22 10:24:50;;;;;;;;;;;;;;;10.00;34.68;95113.69;5030124;28;20025;-90
2022/03/22 10:27:44;;;;;;;12.52;5.85;;;;;;;9.95;34.07;95111.03;5046976;28;19905;-92
2022/03/22 10:30:10;;;;;;;12.88;6.00;;;;;;;10.08;34.08;95102.44;5010315;28;20040;-93
2022/03/22 10:33:13;;;;;;;14.77;6.82;;;;;;;10.27;34.28;95104.41;5048397;28;20025;-94
2022/03/22 10:36:21;;;;;;;12.90;5.95;;;;;;;10.55;34.32;95100.97;5048280;28;20037;-95
2022/03/22 10:39:06;;;;;;;12.18;6.10;;;;;;;10.78;34.05;95095.94;5046125;28;20080;-88
2022/03/22 10:41:37;;;;;;;10.05;5.43;;;;;;;10.98;33.79;95090.34;5046735;28;20212;-93
2022/03/22 10:44:07;;;;;;;17.77;6.18;;;;;;;11.04;33.18;95089.22;5046451;28;20025;-92
2022/03/22 10:46:38;;;;;;;20.48;6.57;;;;;;;10.98;34.06;95071.69;5046681;28;20148;-94
2022/03/22 10:52:29;;;;;;;15.10;7.07;;;;;;;11.09;33.47;95066.22;4947507;29;20235;-92
2022/03/22 10:58:48;;;;;;;13.10;5.82;;;;;;;11.18;33.20;95056.50;4944583;29;20095;-94
2022/03/22 11:59:47;;;;;;;16.63;5.75;;;;;;;13.31;26.67;94958.66;4945168;29;20035;-87
2022/03/22 12:05:05;;;;;;;;;;;;;;;;;;;;;
2022/03/22 12:07:38;;;;;;;16.25;5.95;;;;;;;13.24;26.77;94937.63;5022808;28;20061;-90
2022/03/22 12:10:24;;;;;;;13.23;5.68;;;;;;;13.15;27.13;94934.09;5025816;28;20235;-90
2022/03/22 12:12:54;;;;;;;20.48;6.97;;;;;;;13.15;26.37;94947.47;5024969;28;20026;-92
2022/03/22 12:15:32;;;;;;;10.23;5.57;;;;;;;12.95;25.75;94940.69;5025180;28;20025;-87
2022/03/22 12:18:13;;;;;;;;;;;;;;;;;;;;;
2022/03/22 12:20:57;;;;;;;16.25;4.72;;;;;;;12.43;25.39;94948.19;4995152;28;20057;-93
2022/03/22 12:23:25;;;;;;;16.40;5.53;;;;;;;12.45;25.26;94932.63;5044945;28;20060;-90
2022/03/22 12:25:51;;;;;;;16.83;6.68;;;;;;;12.54;25.17;94936.22;5044798;28;20025;-90
2022/03/22 12:28:20;;;;;;;12.88;5.35;;;;;;;12.68;25.12;94938.88;5027832;28;20021;-94
2022/03/22 12:30:48;;;;;;;16.83;5.57;;;;;;;12.75;25.52;94930.44;5045897;28;20203;-93
2022/03/22 12:33:21;;;;;;;14.82;5.15;;;;;;;12.98;25.86;94929.38;5044626;28;20112;-93
2022/03/22 12:35:48;;;;;;;16.00;5.75;;;;;;;13.32;25.25;94932.69;5043733;28;20024;-88
2022/03/22 12:38:15;;;;;;;11.65;5.50;;;;;;;13.57;25.00;94923.22;5043546;28;20021;-86
2022/03/22 12:40:42;;;;;;;16.17;5.95;;;;;;;13.83;25.04;94916.13;5025301;28;20022;-87
2022/03/22 12:43:12;;;;;;;15.35;5.53;;;;;;;13.93;25.03;94908.94;5043990;28;20315;-85
2022/03/22 12:45:42;;;;;;;12.65;6.30;;;;;;;14.07;24.42;94919.56;5043185;28;20013;-82
2022/03/22 12:48:08;;;;;;;14.35;6.25;;;;;;;14.13;24.18;94929.06;5043424;28;20017;-86
2022/03/22 12:50:36;;;;;;;17.80;6.00;;;;;;;14.17;24.42;94917.41;5045132;28;20024;-90
2022/03/22 12:53:14;;;;;;;;;;;;;;;;;;;;;
2022/03/22 12:55:53;;;;;;;15.88;7.38;;;;;;;14.27;23.10;94913.66;5208820;23;20054;-92
2022/03/22 12:58:31;;;;;;;17.35;6.18;;;;;;;13.99;23.19;94913.84;5005496;28;20022;-96
2022/03/22 13:00:57;;;;;;;11.85;5.70;;;;;;;13.93;23.63;94903.59;4988280;28;20334;-86
2022/03/22 13:03:44;;;;;;;15.95;6.30;;;;;;;13.86;23.58;94912.06;5005731;28;20026;-94
2022/03/22 13:06:43;;;;;;;15.48;5.38;;;;;;;14.03;23.75;94906.78;5008642;28;20025;-96
2022/03/22 13:12:00;;;;;;;13.38;5.65;;;;;;;13.90;23.36;94914.91;4973792;28;20325;-89
2022/03/22 13:17:16;;;;;;;15.52;6.47;;;;;;;13.61;23.23;94919.63;5003876;28;20070;-90
2022/03/22 13:19:42;;;;;;;14.52;6.40;;;;;;;13.51;23.96;94919.09;5003685;28;20022;-89
2022/03/22 13:22:17;;;;;;;13.32;5.75;;;;;;;13.60;23.89;94922.63;5003626;28;20073;-87
2022/03/22 13:24:42;;;;;;;12.27;6.18;;;;;;;13.61;23.85;94916.94;5003499;28;20220;-90
2022/03/22 13:27:09;;;;;;;11.73;6.20;;;;;;;13.72;23.49;94914.81;5003831;28;20057;-92
2022/03/22 13:29:42;;;;;;;11.88;6.50;;;;;;;13.66;23.08;94916.06;4986915;28;20328;-87
2022/03/22 13:32:10;;;;;;;12.90;6.20;;;;;;;13.52;23.52;94904.63;5005711;28;20073;-93
2022/03/22 13:34:38;;;;;;;14.43;6.20;;;;;;;13.44;23.63;94906.94;5003675;28;20023;-91
2022/03/22 13:37:12;;;;;;;16.38;6.43;;;;;;;13.44;23.68;94903.47;5004198;28;20328;-91
2022/03/22 13:39:40;;;;;;;13.90;6.65;;;;;;;13.39;23.86;94891.00;5005178;28;20251;-88
2022/03/22 13:42:15;;;;;;;14.85;5.88;;;;;;;13.38;23.85;94894.75;5003542;28;20068;-90
2022/03/22 13:44:58;;;;;;;15.25;7.47;;;;;;;13.38;24.01;94897.44;5003840;28;20029;-94
2022/03/22 13:47:35;;;;;;;26.90;7.22;;;;;;;13.34;23.72;94895.69;5005717;28;20018;-93
2022/03/22 13:52:38;;;;;;;14.25;6.50;;;;;;;13.04;24.04;94887.22;5138883;23;20061;-90
2022/03/22 13:55:21;;;;;;;15.00;6.93;;;;;;;12.75;24.11;94876.94;5027806;28;20022;-88
2022/03/22 13:57:49;;;;;;;17.05;7.97;;;;;;;12.75;24.49;94884.97;5026032;28;20026;-82
2022/03/22 14:00:14;;;;;;;12.50;6.50;;;;;;;12.70;24.36;94885.06;5026393;28;20076;-86
2022/03/22 14:02:40;;;;;;;17.85;7.65;;;;;;;12.55;24.59;94886.19;5026459;28;20320;-78
2022/03/22 14:05:06;;;;;;;15.10;6.22;;;;;;;12.57;24.40;94870.63;5026617;28;20026;-76